sensor_id;sensor_type;location;lat;lon;timestamp;pressure;altitude;pressure_sealevel;temperature;humidity
12536;BME280;6334;48.696;2.114;2023-07-20T00:01:32;100008.27;;;19.41;58.27
12536;BME280;6334;48.696;2.114;2023-07-20T00:04:03;100012.42;;;19.38;58.20
12536;BME280;6334;48.696;2.114;2023-07-20T00:06:33;100012.19;;;19.36;58.15
12536;BME280;6334;48.696;2.114;2023-07-20T00:09:04;100015.67;;;19.58;57.94
12536;BME280;6334;48.696;2.114;2023-07-20T00:11:35;100011.98;;;19.64;57.88
12536;BME280;6334;48.696;2.114;2023-07-20T00:14:04;100007.70;;;19.56;57.80
12536;BME280;6334;48.696;2.114;2023-07-20T00:16:34;100005.95;;;19.58;57.66
12536;BME280;6334;48.696;2.114;2023-07-20T00:19:05;100003.41;;;19.45;58.32
12536;BME280;6334;48.696;2.114;2023-07-20T00:21:35;100008.95;;;19.20;58.79
12536;BME280;6334;48.696;2.114;2023-07-20T00:24:06;100011.31;;;19.19;59.04
12536;BME280;6334;48.696;2.114;2023-07-20T00:26:36;100010.81;;;19.10;59.58
12536;BME280;6334;48.696;2.114;2023-07-20T00:29:06;100011.55;;;19.36;58.24
12536;BME280;6334;48.696;2.114;2023-07-20T00:31:37;100011.47;;;19.49;57.85
12536;BME280;6334;48.696;2.114;2023-07-20T00:34:07;100010.20;;;19.24;58.57
12536;BME280;6334;48.696;2.114;2023-07-20T00:36:38;100008.21;;;19.18;58.77
12536;BME280;6334;48.696;2.114;2023-07-20T00:39:08;100011.56;;;19.52;57.75
12536;BME280;6334;48.696;2.114;2023-07-20T00:41:39;100011.25;;;19.97;57.51
12536;BME280;6334;48.696;2.114;2023-07-20T00:44:09;100005.84;;;19.62;57.37
12536;BME280;6334;48.696;2.114;2023-07-20T00:46:40;100000.59;;;18.73;60.21
12536;BME280;6334;48.696;2.114;2023-07-20T00:49:10;100004.98;;;18.50;60.80
12536;BME280;6334;48.696;2.114;2023-07-20T00:51:41;100005.48;;;18.75;60.82
12536;BME280;6334;48.696;2.114;2023-07-20T00:54:11;99997.73;;;18.60;60.94
12536;BME280;6334;48.696;2.114;2023-07-20T00:56:42;99999.52;;;18.60;60.95
12536;BME280;6334;48.696;2.114;2023-07-20T00:59:12;99991.52;;;18.76;60.15
12536;BME280;6334;48.696;2.114;2023-07-20T01:01:43;100000.02;;;19.04;59.63
12536;BME280;6334;48.696;2.114;2023-07-20T01:04:13;100002.37;;;18.92;59.67
12536;BME280;6334;48.696;2.114;2023-07-20T01:06:53;100003.23;;;18.80;59.92
12536;BME280;6334;48.696;2.114;2023-07-20T01:09:26;99996.37;;;18.68;60.42
12536;BME280;6334;48.696;2.114;2023-07-20T01:12:07;99998.19;;;19.07;59.87
12536;BME280;6334;48.696;2.114;2023-07-20T01:14:34;100000.38;;;19.11;58.96
12536;BME280;6334;48.696;2.114;2023-07-20T01:17:05;99986.59;;;19.01;59.38
12536;BME280;6334;48.696;2.114;2023-07-20T01:19:35;99995.05;;;19.08;59.38
12536;BME280;6334;48.696;2.114;2023-07-20T01:25:07;99995.66;;;19.04;59.13
12536;BME280;6334;48.696;2.114;2023-07-20T01:33:03;99995.54;;;18.79;59.58
12536;BME280;6334;48.696;2.114;2023-07-20T01:35:33;99990.17;;;18.69;60.12
12536;BME280;6334;48.696;2.114;2023-07-20T01:38:03;99987.20;;;18.09;62.19
12536;BME280;6334;48.696;2.114;2023-07-20T01:40:35;99987.02;;;18.48;61.09
12536;BME280;6334;48.696;2.114;2023-07-20T01:43:05;99981.14;;;18.75;60.22
12536;BME280;6334;48.696;2.114;2023-07-20T01:45:36;99989.98;;;18.77;59.92
12536;BME280;6334;48.696;2.114;2023-07-20T01:48:06;99985.83;;;18.57;60.74
12536;BME280;6334;48.696;2.114;2023-07-20T01:50:37;99981.48;;;18.13;62.61
12536;BME280;6334;48.696;2.114;2023-07-20T01:53:07;99975.89;;;18.33;62.19
12536;BME280;6334;48.696;2.114;2023-07-20T01:55:38;99976.44;;;18.22;62.04
12536;BME280;6334;48.696;2.114;2023-07-20T01:58:08;99974.53;;;17.92;63.56
12536;BME280;6334;48.696;2.114;2023-07-20T02:00:39;99971.55;;;18.45;61.57
12536;BME280;6334;48.696;2.114;2023-07-20T02:03:09;99970.28;;;18.24;62.61
12536;BME280;6334;48.696;2.114;2023-07-20T02:05:42;99971.84;;;18.01;63.57
12536;BME280;6334;48.696;2.114;2023-07-20T02:08:10;99968.24;;;17.66;65.36
12536;BME280;6334;48.696;2.114;2023-07-20T02:10:40;99967.60;;;17.93;63.88
12536;BME280;6334;48.696;2.114;2023-07-20T02:13:11;99974.59;;;18.05;62.91
12536;BME280;6334;48.696;2.114;2023-07-20T02:15:41;99967.62;;;18.18;62.99
12536;BME280;6334;48.696;2.114;2023-07-20T02:18:12;99971.01;;;17.95;63.09
12536;BME280;6334;48.696;2.114;2023-07-20T02:20:41;99970.55;;;18.14;62.35
12536;BME280;6334;48.696;2.114;2023-07-20T02:23:13;99967.78;;;18.37;61.75
12536;BME280;6334;48.696;2.114;2023-07-20T02:25:44;99971.45;;;18.12;62.41
12536;BME280;6334;48.696;2.114;2023-07-20T02:28:14;99972.42;;;18.03;62.74
12536;BME280;6334;48.696;2.114;2023-07-20T02:30:44;99970.75;;;18.06;63.18
12536;BME280;6334;48.696;2.114;2023-07-20T02:33:16;99969.04;;;17.99;62.96
12536;BME280;6334;48.696;2.114;2023-07-20T02:35:47;99969.73;;;17.88;64.10
12536;BME280;6334;48.696;2.114;2023-07-20T02:38:17;99971.95;;;18.02;62.74
12536;BME280;6334;48.696;2.114;2023-07-20T02:40:48;99975.28;;;17.73;64.19
12536;BME280;6334;48.696;2.114;2023-07-20T02:43:18;99976.00;;;18.04;63.82
12536;BME280;6334;48.696;2.114;2023-07-20T02:45:50;99972.97;;;18.22;62.72
12536;BME280;6334;48.696;2.114;2023-07-20T02:48:19;99971.64;;;17.79;63.86
12536;BME280;6334;48.696;2.114;2023-07-20T02:50:49;99964.47;;;17.71;63.97
12536;BME280;6334;48.696;2.114;2023-07-20T02:53:20;99965.06;;;17.81;63.83
12536;BME280;6334;48.696;2.114;2023-07-20T02:55:50;99967.12;;;18.08;62.86
12536;BME280;6334;48.696;2.114;2023-07-20T02:58:21;99966.56;;;18.03;63.05
12536;BME280;6334;48.696;2.114;2023-07-20T03:00:51;99964.80;;;17.71;63.96
12536;BME280;6334;48.696;2.114;2023-07-20T03:03:22;99964.84;;;17.60;64.27
12536;BME280;6334;48.696;2.114;2023-07-20T03:05:52;99967.03;;;17.60;64.07
12536;BME280;6334;48.696;2.114;2023-07-20T03:08:23;99970.02;;;17.59;64.44
12536;BME280;6334;48.696;2.114;2023-07-20T03:10:53;99970.58;;;17.40;64.77
12536;BME280;6334;48.696;2.114;2023-07-20T03:13:24;99963.89;;;17.71;64.52
12536;BME280;6334;48.696;2.114;2023-07-20T03:15:54;99967.89;;;17.91;63.65
12536;BME280;6334;48.696;2.114;2023-07-20T03:18:25;99968.37;;;17.53;65.07
12536;BME280;6334;48.696;2.114;2023-07-20T03:20:55;99965.88;;;17.72;64.70
12536;BME280;6334;48.696;2.114;2023-07-20T03:23:25;99972.97;;;17.81;64.34
12536;BME280;6334;48.696;2.114;2023-07-20T03:25:56;99962.42;;;18.12;63.86
12536;BME280;6334;48.696;2.114;2023-07-20T03:28:26;99964.97;;;18.19;63.73
12536;BME280;6334;48.696;2.114;2023-07-20T03:30:57;99962.22;;;18.22;63.27
12536;BME280;6334;48.696;2.114;2023-07-20T03:33:28;99958.25;;;18.34;61.89
12536;BME280;6334;48.696;2.114;2023-07-20T03:35:58;99956.30;;;18.15;61.46
12536;BME280;6334;48.696;2.114;2023-07-20T03:38:28;99954.70;;;18.30;61.17
12536;BME280;6334;48.696;2.114;2023-07-20T03:40:59;99959.52;;;18.18;61.72
12536;BME280;6334;48.696;2.114;2023-07-20T03:43:29;99962.14;;;17.85;62.66
12536;BME280;6334;48.696;2.114;2023-07-20T03:46:00;99961.19;;;17.74;62.63
12536;BME280;6334;48.696;2.114;2023-07-20T03:48:30;99963.23;;;17.79;62.90
12536;BME280;6334;48.696;2.114;2023-07-20T03:51:01;99962.67;;;17.98;62.24
12536;BME280;6334;48.696;2.114;2023-07-20T03:53:31;99963.80;;;17.77;62.39
12536;BME280;6334;48.696;2.114;2023-07-20T03:56:02;99961.03;;;17.83;61.96
12536;BME280;6334;48.696;2.114;2023-07-20T03:58:32;99962.94;;;17.68;62.22
12536;BME280;6334;48.696;2.114;2023-07-20T04:01:02;99963.46;;;17.72;62.52
12536;BME280;6334;48.696;2.114;2023-07-20T04:03:33;99962.63;;;17.75;62.75
12536;BME280;6334;48.696;2.114;2023-07-20T04:06:03;99964.81;;;17.65;62.68
12536;BME280;6334;48.696;2.114;2023-07-20T04:08:35;99963.60;;;17.80;62.18
12536;BME280;6334;48.696;2.114;2023-07-20T04:11:04;99964.79;;;17.68;62.29
12536;BME280;6334;48.696;2.114;2023-07-20T04:13:35;99960.24;;;17.68;61.95
12536;BME280;6334;48.696;2.114;2023-07-20T04:16:05;99962.98;;;17.57;62.29
12536;BME280;6334;48.696;2.114;2023-07-20T04:18:36;99961.30;;;17.41;63.23
12536;BME280;6334;48.696;2.114;2023-07-20T04:21:07;99958.28;;;17.87;63.20
12536;BME280;6334;48.696;2.114;2023-07-20T04:23:37;99949.83;;;17.86;62.57
12536;BME280;6334;48.696;2.114;2023-07-20T04:26:07;99957.97;;;17.85;62.77
12536;BME280;6334;48.696;2.114;2023-07-20T04:28:38;99953.02;;;17.91;61.84
12536;BME280;6334;48.696;2.114;2023-07-20T04:31:13;99954.31;;;17.61;62.41
12536;BME280;6334;48.696;2.114;2023-07-20T04:33:44;99952.44;;;17.67;62.47
12536;BME280;6334;48.696;2.114;2023-07-20T04:36:14;99955.21;;;17.72;62.62
12536;BME280;6334;48.696;2.114;2023-07-20T04:38:45;99956.30;;;17.67;62.76
12536;BME280;6334;48.696;2.114;2023-07-20T04:41:15;99953.66;;;17.59;63.56
12536;BME280;6334;48.696;2.114;2023-07-20T04:43:46;99956.58;;;17.69;63.87
12536;BME280;6334;48.696;2.114;2023-07-20T04:46:16;99953.52;;;17.68;63.46
12536;BME280;6334;48.696;2.114;2023-07-20T04:48:48;99954.36;;;17.76;62.97
12536;BME280;6334;48.696;2.114;2023-07-20T04:51:18;99952.69;;;17.78;63.39
12536;BME280;6334;48.696;2.114;2023-07-20T04:53:49;99954.45;;;17.56;65.35
12536;BME280;6334;48.696;2.114;2023-07-20T04:56:19;99954.87;;;18.00;61.42
12536;BME280;6334;48.696;2.114;2023-07-20T04:58:52;99954.45;;;17.96;61.28
12536;BME280;6334;48.696;2.114;2023-07-20T05:01:23;99955.11;;;18.12;61.18
12536;BME280;6334;48.696;2.114;2023-07-20T05:03:55;99958.59;;;18.03;61.22
12536;BME280;6334;48.696;2.114;2023-07-20T05:06:25;99960.98;;;18.04;61.44
12536;BME280;6334;48.696;2.114;2023-07-20T05:08:56;99963.36;;;17.60;63.68
12536;BME280;6334;48.696;2.114;2023-07-20T05:11:26;99966.16;;;17.67;64.85
12536;BME280;6334;48.696;2.114;2023-07-20T05:13:56;99969.16;;;17.35;65.81
12536;BME280;6334;48.696;2.114;2023-07-20T05:16:27;99963.41;;;17.73;66.00
12536;BME280;6334;48.696;2.114;2023-07-20T05:18:57;99966.38;;;17.04;67.33
12536;BME280;6334;48.696;2.114;2023-07-20T05:21:28;99970.14;;;17.75;65.16
12536;BME280;6334;48.696;2.114;2023-07-20T05:23:58;99964.03;;;17.72;64.58
12536;BME280;6334;48.696;2.114;2023-07-20T05:26:29;99966.38;;;17.82;64.94
12536;BME280;6334;48.696;2.114;2023-07-20T05:28:59;99970.12;;;17.83;64.89
12536;BME280;6334;48.696;2.114;2023-07-20T05:31:30;99965.99;;;17.88;64.95
12536;BME280;6334;48.696;2.114;2023-07-20T05:34:00;99961.23;;;18.02;64.30
12536;BME280;6334;48.696;2.114;2023-07-20T05:36:31;99962.65;;;18.42;64.35
12536;BME280;6334;48.696;2.114;2023-07-20T05:39:01;99965.13;;;17.98;64.86
12536;BME280;6334;48.696;2.114;2023-07-20T05:41:31;99966.39;;;17.86;65.28
12536;BME280;6334;48.696;2.114;2023-07-20T05:44:02;99970.83;;;17.64;66.75
12536;BME280;6334;48.696;2.114;2023-07-20T05:46:32;99974.25;;;17.51;67.65
12536;BME280;6334;48.696;2.114;2023-07-20T05:49:04;99968.52;;;17.49;67.14
12536;BME280;6334;48.696;2.114;2023-07-20T05:51:35;99966.34;;;17.75;66.09
12536;BME280;6334;48.696;2.114;2023-07-20T05:54:05;99966.33;;;17.94;65.68
12536;BME280;6334;48.696;2.114;2023-07-20T05:56:35;99965.20;;;18.06;65.34
12536;BME280;6334;48.696;2.114;2023-07-20T05:59:06;99964.25;;;18.53;63.31
12536;BME280;6334;48.696;2.114;2023-07-20T06:01:36;99967.14;;;18.05;64.84
12536;BME280;6334;48.696;2.114;2023-07-20T06:04:07;99966.34;;;18.50;63.90
12536;BME280;6334;48.696;2.114;2023-07-20T06:06:37;99968.23;;;18.57;63.55
12536;BME280;6334;48.696;2.114;2023-07-20T06:09:08;99969.70;;;18.11;65.39
12536;BME280;6334;48.696;2.114;2023-07-20T06:11:38;99957.82;;;18.26;65.51
12536;BME280;6334;48.696;2.114;2023-07-20T06:14:09;99967.42;;;18.54;64.03
12536;BME280;6334;48.696;2.114;2023-07-20T06:16:39;99962.59;;;18.68;63.80
12536;BME280;6334;48.696;2.114;2023-07-20T06:19:10;99964.70;;;18.97;63.43
12536;BME280;6334;48.696;2.114;2023-07-20T06:21:41;99966.59;;;19.16;61.91
12536;BME280;6334;48.696;2.114;2023-07-20T06:24:11;99963.37;;;19.16;61.76
12536;BME280;6334;48.696;2.114;2023-07-20T06:26:42;99959.68;;;19.36;60.80
12536;BME280;6334;48.696;2.114;2023-07-20T06:29:12;99967.88;;;19.36;61.28
12536;BME280;6334;48.696;2.114;2023-07-20T06:31:43;99963.27;;;19.47;60.96
12536;BME280;6334;48.696;2.114;2023-07-20T06:34:13;99962.36;;;19.72;60.19
12536;BME280;6334;48.696;2.114;2023-07-20T06:36:44;99966.00;;;19.47;62.15
12536;BME280;6334;48.696;2.114;2023-07-20T06:39:14;99966.11;;;19.82;60.81
12536;BME280;6334;48.696;2.114;2023-07-20T06:41:45;99963.70;;;19.76;61.71
12536;BME280;6334;48.696;2.114;2023-07-20T06:44:15;99966.41;;;20.23;59.84
12536;BME280;6334;48.696;2.114;2023-07-20T06:46:46;99962.99;;;20.64;58.66
12536;BME280;6334;48.696;2.114;2023-07-20T06:49:27;99966.84;;;20.48;59.72
12536;BME280;6334;48.696;2.114;2023-07-20T06:51:58;99960.61;;;20.46;59.30
12536;BME280;6334;48.696;2.114;2023-07-20T06:54:28;99969.75;;;20.04;60.24
12536;BME280;6334;48.696;2.114;2023-07-20T06:56:59;99958.36;;;20.79;58.38
12536;BME280;6334;48.696;2.114;2023-07-20T06:59:29;99955.91;;;20.94;58.39
12536;BME280;6334;48.696;2.114;2023-07-20T07:02:00;99959.32;;;21.25;57.23
12536;BME280;6334;48.696;2.114;2023-07-20T07:04:31;99955.59;;;21.00;57.59
12536;BME280;6334;48.696;2.114;2023-07-20T07:07:01;99959.73;;;21.38;57.28
12536;BME280;6334;48.696;2.114;2023-07-20T07:09:32;99956.30;;;21.59;56.22
12536;BME280;6334;48.696;2.114;2023-07-20T07:12:02;99950.53;;;21.13;57.68
12536;BME280;6334;48.696;2.114;2023-07-20T07:14:32;99949.11;;;21.84;56.23
12536;BME280;6334;48.696;2.114;2023-07-20T07:17:03;99949.27;;;20.86;57.97
12536;BME280;6334;48.696;2.114;2023-07-20T07:19:33;99953.16;;;21.29;57.44
12536;BME280;6334;48.696;2.114;2023-07-20T07:22:04;99950.89;;;21.86;55.92
12536;BME280;6334;48.696;2.114;2023-07-20T07:24:34;99954.75;;;21.46;57.44
12536;BME280;6334;48.696;2.114;2023-07-20T07:27:05;99941.48;;;21.87;55.97
12536;BME280;6334;48.696;2.114;2023-07-20T07:29:35;99948.66;;;21.85;55.97
12536;BME280;6334;48.696;2.114;2023-07-20T07:32:07;99958.17;;;21.48;57.95
12536;BME280;6334;48.696;2.114;2023-07-20T07:34:37;99953.09;;;22.18;55.29
12536;BME280;6334;48.696;2.114;2023-07-20T07:37:08;99953.53;;;22.15;54.86
12536;BME280;6334;48.696;2.114;2023-07-20T07:39:38;99945.96;;;22.28;54.83
12536;BME280;6334;48.696;2.114;2023-07-20T07:42:09;99953.22;;;22.45;54.34
12536;BME280;6334;48.696;2.114;2023-07-20T07:44:39;99954.75;;;22.25;54.90
12536;BME280;6334;48.696;2.114;2023-07-20T07:47:11;99954.68;;;22.91;52.81
12536;BME280;6334;48.696;2.114;2023-07-20T07:49:42;99944.95;;;21.94;53.84
12536;BME280;6334;48.696;2.114;2023-07-20T07:52:12;99953.14;;;22.50;52.44
12536;BME280;6334;48.696;2.114;2023-07-20T07:54:42;99948.86;;;22.57;52.41
12536;BME280;6334;48.696;2.114;2023-07-20T07:57:14;99948.95;;;22.27;53.91
12536;BME280;6334;48.696;2.114;2023-07-20T07:59:45;99949.86;;;22.38;53.42
12536;BME280;6334;48.696;2.114;2023-07-20T08:02:15;99948.66;;;22.53;52.16
12536;BME280;6334;48.696;2.114;2023-07-20T08:04:45;99947.75;;;22.27;53.45
12536;BME280;6334;48.696;2.114;2023-07-20T08:07:16;99950.77;;;23.02;51.15
12536;BME280;6334;48.696;2.114;2023-07-20T08:09:46;99945.16;;;22.92;51.78
12536;BME280;6334;48.696;2.114;2023-07-20T08:12:17;99947.25;;;23.07;51.05
12536;BME280;6334;48.696;2.114;2023-07-20T08:14:47;99943.70;;;23.35;50.30
12536;BME280;6334;48.696;2.114;2023-07-20T08:17:18;99940.73;;;23.09;50.78
12536;BME280;6334;48.696;2.114;2023-07-20T08:19:48;99939.58;;;23.41;49.28
12536;BME280;6334;48.696;2.114;2023-07-20T08:22:19;99939.44;;;22.93;50.81
12536;BME280;6334;48.696;2.114;2023-07-20T08:24:49;99935.58;;;22.74;48.59
12536;BME280;6334;48.696;2.114;2023-07-20T08:27:20;99935.72;;;23.62;46.57
12536;BME280;6334;48.696;2.114;2023-07-20T08:29:50;99931.20;;;23.16;48.42
12536;BME280;6334;48.696;2.114;2023-07-20T08:32:20;99928.00;;;23.47;47.54
12536;BME280;6334;48.696;2.114;2023-07-20T08:34:51;99930.02;;;23.62;46.97
12536;BME280;6334;48.696;2.114;2023-07-20T08:37:21;99923.92;;;23.59;47.05
12536;BME280;6334;48.696;2.114;2023-07-20T08:39:52;99919.08;;;22.98;48.76
12536;BME280;6334;48.696;2.114;2023-07-20T08:42:22;99918.88;;;23.24;47.80
12536;BME280;6334;48.696;2.114;2023-07-20T08:44:53;99923.08;;;24.31;46.94
12536;BME280;6334;48.696;2.114;2023-07-20T08:47:23;99917.45;;;23.83;44.76
12536;BME280;6334;48.696;2.114;2023-07-20T08:49:54;99927.38;;;24.41;43.74
12536;BME280;6334;48.696;2.114;2023-07-20T08:52:24;99926.02;;;23.78;44.51
12536;BME280;6334;48.696;2.114;2023-07-20T08:54:55;99922.95;;;24.12;44.31
12536;BME280;6334;48.696;2.114;2023-07-20T08:57:25;99929.01;;;23.73;44.54
12536;BME280;6334;48.696;2.114;2023-07-20T08:59:55;99924.06;;;24.76;43.34
12536;BME280;6334;48.696;2.114;2023-07-20T09:02:26;99923.00;;;24.69;42.62
12536;BME280;6334;48.696;2.114;2023-07-20T09:04:56;99918.12;;;23.36;44.81
12536;BME280;6334;48.696;2.114;2023-07-20T09:07:27;99925.73;;;23.50;45.45
12536;BME280;6334;48.696;2.114;2023-07-20T09:09:57;99923.56;;;22.66;46.21
12536;BME280;6334;48.696;2.114;2023-07-20T09:12:29;99917.66;;;22.87;46.01
12536;BME280;6334;48.696;2.114;2023-07-20T09:14:59;99923.80;;;23.72;42.90
12536;BME280;6334;48.696;2.114;2023-07-20T09:17:30;99919.95;;;24.17;42.37
12536;BME280;6334;48.696;2.114;2023-07-20T09:20:06;99914.41;;;24.07;42.49
12536;BME280;6334;48.696;2.114;2023-07-20T09:22:39;99914.45;;;24.65;42.29
12536;BME280;6334;48.696;2.114;2023-07-20T09:25:13;99919.72;;;24.40;41.75
12536;BME280;6334;48.696;2.114;2023-07-20T09:27:46;99920.69;;;24.72;42.51
12536;BME280;6334;48.696;2.114;2023-07-20T09:30:16;99916.28;;;24.64;42.04
12536;BME280;6334;48.696;2.114;2023-07-20T09:32:47;99915.95;;;23.82;43.18
12536;BME280;6334;48.696;2.114;2023-07-20T09:35:22;99917.66;;;23.27;44.48
12536;BME280;6334;48.696;2.114;2023-07-20T09:37:58;99913.88;;;23.27;46.25
12536;BME280;6334;48.696;2.114;2023-07-20T09:40:28;99909.33;;;23.13;45.20
12536;BME280;6334;48.696;2.114;2023-07-20T09:42:59;99907.23;;;23.83;43.05
12536;BME280;6334;48.696;2.114;2023-07-20T09:45:30;99908.37;;;23.55;44.45
12536;BME280;6334;48.696;2.114;2023-07-20T09:48:06;99902.27;;;24.04;44.18
12536;BME280;6334;48.696;2.114;2023-07-20T09:50:39;99901.42;;;24.65;43.61
12536;BME280;6334;48.696;2.114;2023-07-20T09:53:11;99902.09;;;24.78;43.10
12536;BME280;6334;48.696;2.114;2023-07-20T09:55:43;99899.81;;;24.86;41.78
12536;BME280;6334;48.696;2.114;2023-07-20T09:58:13;99904.53;;;23.79;43.35
12536;BME280;6334;48.696;2.114;2023-07-20T10:00:43;99899.48;;;23.51;44.49
12536;BME280;6334;48.696;2.114;2023-07-20T10:03:22;99899.47;;;23.05;45.69
12536;BME280;6334;48.696;2.114;2023-07-20T10:06:15;99900.65;;;23.92;43.58
12536;BME280;6334;48.696;2.114;2023-07-20T10:08:26;99895.63;;;24.40;43.37
12536;BME280;6334;48.696;2.114;2023-07-20T10:10:56;99894.70;;;24.14;42.22
12536;BME280;6334;48.696;2.114;2023-07-20T10:13:26;99896.48;;;24.27;40.59
12536;BME280;6334;48.696;2.114;2023-07-20T10:16:02;99890.17;;;24.43;39.95
12536;BME280;6334;48.696;2.114;2023-07-20T10:18:41;99886.50;;;24.41;41.02
12536;BME280;6334;48.696;2.114;2023-07-20T10:21:11;99878.62;;;24.80;40.07
12536;BME280;6334;48.696;2.114;2023-07-20T10:23:43;99880.72;;;24.90;41.60
12536;BME280;6334;48.696;2.114;2023-07-20T10:26:13;99877.39;;;23.55;42.25
12536;BME280;6334;48.696;2.114;2023-07-20T10:28:44;99872.77;;;23.57;42.51
12536;BME280;6334;48.696;2.114;2023-07-20T10:31:14;99864.22;;;23.53;43.37
12536;BME280;6334;48.696;2.114;2023-07-20T10:33:45;99874.47;;;23.29;43.02
12536;BME280;6334;48.696;2.114;2023-07-20T10:36:15;99871.37;;;23.44;40.10
12536;BME280;6334;48.696;2.114;2023-07-20T10:41:19;99859.91;;;24.57;39.63
12536;BME280;6334;48.696;2.114;2023-07-20T10:43:49;99853.32;;;24.89;40.31
12536;BME280;6334;48.696;2.114;2023-07-20T10:46:44;99856.08;;;24.68;39.50
12536;BME280;6334;48.696;2.114;2023-07-20T10:49:13;99852.45;;;25.07;38.53
12536;BME280;6334;48.696;2.114;2023-07-20T10:51:47;99850.45;;;24.58;37.26
12536;BME280;6334;48.696;2.114;2023-07-20T10:56:48;99848.55;;;25.07;39.20
12536;BME280;6334;48.696;2.114;2023-07-20T10:59:19;99847.33;;;24.87;39.01
12536;BME280;6334;48.696;2.114;2023-07-20T11:01:49;99854.47;;;23.90;39.67
12536;BME280;6334;48.696;2.114;2023-07-20T11:04:19;99847.25;;;24.45;40.63
12536;BME280;6334;48.696;2.114;2023-07-20T11:06:56;99853.55;;;24.26;41.07
12536;BME280;6334;48.696;2.114;2023-07-20T11:09:33;99852.69;;;23.88;40.55
12536;BME280;6334;48.696;2.114;2023-07-20T11:12:09;99858.70;;;23.33;41.33
12536;BME280;6334;48.696;2.114;2023-07-20T11:14:27;99854.47;;;23.95;38.90
12536;BME280;6334;48.696;2.114;2023-07-20T11:16:59;99853.48;;;24.05;39.74
12536;BME280;6334;48.696;2.114;2023-07-20T11:19:28;99848.61;;;24.43;38.19
12536;BME280;6334;48.696;2.114;2023-07-20T11:21:59;99845.20;;;24.28;36.48
12536;BME280;6334;48.696;2.114;2023-07-20T11:24:29;99850.22;;;24.66;38.18
12536;BME280;6334;48.696;2.114;2023-07-20T11:27:01;99852.11;;;24.80;37.63
12536;BME280;6334;48.696;2.114;2023-07-20T11:29:31;99846.27;;;24.59;37.93
12536;BME280;6334;48.696;2.114;2023-07-20T11:32:02;99839.95;;;24.68;38.31
12536;BME280;6334;48.696;2.114;2023-07-20T11:34:32;99836.55;;;24.67;37.33
12536;BME280;6334;48.696;2.114;2023-07-20T11:37:05;99838.90;;;25.26;38.74
12536;BME280;6334;48.696;2.114;2023-07-20T11:39:33;99834.01;;;25.08;39.10
12536;BME280;6334;48.696;2.114;2023-07-20T11:42:04;99831.72;;;25.03;40.25
12536;BME280;6334;48.696;2.114;2023-07-20T11:44:34;99829.14;;;24.89;38.76
12536;BME280;6334;48.696;2.114;2023-07-20T11:47:11;99833.50;;;25.17;39.44
12536;BME280;6334;48.696;2.114;2023-07-20T11:49:41;99826.05;;;25.37;38.88
12536;BME280;6334;48.696;2.114;2023-07-20T11:52:11;99825.66;;;25.75;36.89
12536;BME280;6334;48.696;2.114;2023-07-20T11:54:40;99819.98;;;25.56;36.96
12536;BME280;6334;48.696;2.114;2023-07-20T11:57:20;99815.94;;;25.78;36.19
12536;BME280;6334;48.696;2.114;2023-07-20T11:59:55;99810.57;;;25.66;37.09
12536;BME280;6334;48.696;2.114;2023-07-20T12:02:27;99812.88;;;25.03;36.56
12536;BME280;6334;48.696;2.114;2023-07-20T12:04:57;99817.33;;;25.29;36.96
12536;BME280;6334;48.696;2.114;2023-07-20T12:07:28;99815.65;;;25.55;36.59
12536;BME280;6334;48.696;2.114;2023-07-20T12:10:07;99810.33;;;25.84;37.39
12536;BME280;6334;48.696;2.114;2023-07-20T12:12:40;99801.59;;;25.63;37.26
12536;BME280;6334;48.696;2.114;2023-07-20T12:15:16;99794.01;;;25.73;36.32
12536;BME280;6334;48.696;2.114;2023-07-20T12:17:49;99789.23;;;25.69;36.90
12536;BME280;6334;48.696;2.114;2023-07-20T12:20:29;99788.05;;;25.47;35.81
12536;BME280;6334;48.696;2.114;2023-07-20T12:23:00;99785.70;;;25.21;36.48
12536;BME280;6334;48.696;2.114;2023-07-20T12:25:39;99789.41;;;25.34;35.87
12536;BME280;6334;48.696;2.114;2023-07-20T12:28:16;99783.84;;;25.53;35.65
12536;BME280;6334;48.696;2.114;2023-07-20T12:30:46;99786.31;;;25.04;36.63
12536;BME280;6334;48.696;2.114;2023-07-20T12:33:16;99781.78;;;25.46;36.71
12536;BME280;6334;48.696;2.114;2023-07-20T12:35:46;99782.32;;;25.50;35.68
12536;BME280;6334;48.696;2.114;2023-07-20T12:38:17;99781.04;;;25.17;36.77
12536;BME280;6334;48.696;2.114;2023-07-20T12:40:47;99780.59;;;25.77;35.46
12536;BME280;6334;48.696;2.114;2023-07-20T12:43:18;99778.70;;;26.07;33.66
12536;BME280;6334;48.696;2.114;2023-07-20T12:45:48;99776.45;;;26.14;34.86
12536;BME280;6334;48.696;2.114;2023-07-20T12:48:19;99772.17;;;26.19;34.97
12536;BME280;6334;48.696;2.114;2023-07-20T12:50:50;99771.27;;;25.98;34.97
12536;BME280;6334;48.696;2.114;2023-07-20T12:53:20;99768.61;;;25.94;34.96
12536;BME280;6334;48.696;2.114;2023-07-20T12:55:51;99767.16;;;25.63;36.16
12536;BME280;6334;48.696;2.114;2023-07-20T12:58:21;99761.09;;;25.12;36.01
12536;BME280;6334;48.696;2.114;2023-07-20T13:00:52;99756.03;;;24.79;36.56
12536;BME280;6334;48.696;2.114;2023-07-20T13:03:22;99755.01;;;25.28;37.49
12536;BME280;6334;48.696;2.114;2023-07-20T13:05:53;99751.57;;;25.15;36.65
12536;BME280;6334;48.696;2.114;2023-07-20T13:08:23;99750.91;;;25.25;35.04
12536;BME280;6334;48.696;2.114;2023-07-20T13:10:54;99750.70;;;25.37;35.35
12536;BME280;6334;48.696;2.114;2023-07-20T13:13:24;99746.84;;;25.70;34.39
12536;BME280;6334;48.696;2.114;2023-07-20T13:15:54;99744.78;;;26.16;33.38
12536;BME280;6334;48.696;2.114;2023-07-20T13:18:25;99741.61;;;26.40;33.75
12536;BME280;6334;48.696;2.114;2023-07-20T13:20:55;99741.31;;;26.16;34.72
12536;BME280;6334;48.696;2.114;2023-07-20T13:23:26;99738.63;;;26.05;35.25
12536;BME280;6334;48.696;2.114;2023-07-20T13:25:56;99739.60;;;26.45;34.05
12536;BME280;6334;48.696;2.114;2023-07-20T13:28:28;99736.66;;;25.56;34.77
12536;BME280;6334;48.696;2.114;2023-07-20T13:30:59;99735.02;;;25.55;37.50
12536;BME280;6334;48.696;2.114;2023-07-20T13:33:29;99730.85;;;25.44;35.56
12536;BME280;6334;48.696;2.114;2023-07-20T13:36:00;99720.75;;;25.46;35.30
12536;BME280;6334;48.696;2.114;2023-07-20T13:38:30;99719.88;;;25.39;35.11
12536;BME280;6334;48.696;2.114;2023-07-20T13:41:00;99718.28;;;25.20;36.00
12536;BME280;6334;48.696;2.114;2023-07-20T13:43:31;99712.19;;;25.64;34.47